createdAt,value
2018-03-15T00:01:52.772Z,81.50
2018-03-15T00:04:19.778Z,81.90
2018-03-15T00:06:46.677Z,81.80
2018-03-15T00:09:13.695Z,81.30
2018-03-15T00:14:40.792Z,82.10
2018-03-15T00:17:07.053Z,82.60
2018-03-15T00:19:34.802Z,82.70
2018-03-15T00:22:01.096Z,82.50
2018-03-15T00:24:27.295Z,81.90
2018-03-15T00:26:53.569Z,81.70
2018-03-15T00:29:27.879Z,81.40
2018-03-15T00:31:54.103Z,81.20
2018-03-15T00:34:20.407Z,81.30
2018-03-15T00:36:47.460Z,80.50
2018-03-15T00:39:14.440Z,80.50
2018-03-15T00:44:34.641Z,80.70
2018-03-15T00:47:00.887Z,81.20
2018-03-15T00:55:13.136Z,81.50
2018-03-15T00:57:39.451Z,81.50
2018-03-15T01:00:05.744Z,81.30
2018-03-15T01:02:31.949Z,81.10
2018-03-15T01:05:04.353Z,81.10
2018-03-15T01:07:30.661Z,81.40
2018-03-15T01:09:56.937Z,81.30
2018-03-15T01:12:23.463Z,81.40
2018-03-15T01:14:49.735Z,81.10
2018-03-15T01:17:16.230Z,81.70
2018-03-15T01:19:43.284Z,82.40
2018-03-15T01:22:10.295Z,82.20
2018-03-15T01:24:42.713Z,82.20
2018-03-15T01:27:21.843Z,82.40
2018-03-15T01:29:48.140Z,82.50
2018-03-15T01:32:14.378Z,82.60
2018-03-15T01:34:40.648Z,82.50
2018-03-15T01:37:06.897Z,82.70
2018-03-15T01:39:33.154Z,82.80
2018-03-15T01:41:59.378Z,82.90
2018-03-15T01:44:25.628Z,82.50
2018-03-15T01:46:55.152Z,83.10
2018-03-15T01:49:21.561Z,83.90
2018-03-15T01:51:47.847Z,83.20
2018-03-15T01:54:14.368Z,83.00
2018-03-15T01:56:40.578Z,83.10
2018-03-15T01:59:06.827Z,83.80
2018-03-15T02:01:33.197Z,83.70
2018-03-15T02:03:59.416Z,83.60
2018-03-15T02:06:25.629Z,83.50
2018-03-15T02:08:51.931Z,84.00
2018-03-15T02:11:18.181Z,84.60
2018-03-15T02:13:44.446Z,82.10
2018-03-15T02:16:11.433Z,82.60
2018-03-15T02:18:37.691Z,82.60
2018-03-15T02:21:04.090Z,82.80
2018-03-15T02:23:31.091Z,82.80
2018-03-15T02:25:57.337Z,82.70
2018-03-15T02:28:23.548Z,83.30
2018-03-15T02:30:49.778Z,83.60
2018-03-15T02:33:16.825Z,83.40
2018-03-15T02:35:43.779Z,83.50
2018-03-15T02:38:10.793Z,84.20
2018-03-15T02:40:37.418Z,83.60
2018-03-15T02:43:03.672Z,83.30
2018-03-15T02:45:29.932Z,83.80
2018-03-15T02:47:58.283Z,83.90
2018-03-15T02:50:24.542Z,84.30
2018-03-15T02:52:50.865Z,83.80
2018-03-15T02:55:17.155Z,83.20
2018-03-15T02:57:43.481Z,83.40
2018-03-15T03:00:14.046Z,83.40
2018-03-15T03:02:40.385Z,83.40
2018-03-15T03:05:06.650Z,83.50
2018-03-15T03:07:37.615Z,83.70
2018-03-15T03:10:04.614Z,83.80
2018-03-15T03:12:30.911Z,83.70
2018-03-15T03:14:57.883Z,83.50
2018-03-15T03:17:24.919Z,83.10
2018-03-15T03:19:51.165Z,83.00
2018-03-15T03:22:17.620Z,82.90
2018-03-15T03:24:43.842Z,83.00
2018-03-15T03:27:10.108Z,83.20
2018-03-15T03:29:37.270Z,83.60
2018-03-15T03:32:04.374Z,83.30
2018-03-15T03:34:30.612Z,83.30
2018-03-15T03:36:56.840Z,82.90
2018-03-15T03:39:23.070Z,83.00
2018-03-15T03:41:49.406Z,83.80
2018-03-15T03:44:16.410Z,83.30
2018-03-15T03:46:42.638Z,83.30
2018-03-15T03:49:08.874Z,83.10
2018-03-15T03:51:35.123Z,83.40
2018-03-15T03:54:01.386Z,82.90
2018-03-15T03:56:27.666Z,83.00
2018-03-15T03:58:54.854Z,83.20
2018-03-15T04:01:21.119Z,83.20
2018-03-15T04:03:47.418Z,83.20
2018-03-15T04:06:14.442Z,83.10
2018-03-15T04:08:40.694Z,83.10
2018-03-15T04:11:06.947Z,82.50
2018-03-15T04:13:33.917Z,82.60
2018-03-15T04:16:00.233Z,82.60
2018-03-15T04:18:26.568Z,82.40
2018-03-15T04:20:53.047Z,81.50
2018-03-15T04:23:20.118Z,82.10
2018-03-15T04:25:46.521Z,82.10
2018-03-15T04:28:12.818Z,81.40
2018-03-15T04:30:39.064Z,80.50
2018-03-15T04:33:05.416Z,80.30
2018-03-15T04:35:31.735Z,80.70
2018-03-15T04:37:57.984Z,80.90
2018-03-15T04:40:24.246Z,81.10
2018-03-15T04:42:50.518Z,81.30
2018-03-15T04:45:17.114Z,82.60
2018-03-15T04:47:43.397Z,82.50
2018-03-15T04:50:09.610Z,81.80
2018-03-15T04:52:51.530Z,81.10
2018-03-15T04:55:17.765Z,81.30
2018-03-15T04:57:44.035Z,80.50
2018-03-15T05:00:10.391Z,79.50
2018-03-15T05:02:36.759Z,79.40
2018-03-15T05:05:03.760Z,80.10
2018-03-15T05:07:30.035Z,80.10
2018-03-15T05:09:56.297Z,81.10
2018-03-15T05:12:22.653Z,82.10
2018-03-15T05:14:49.674Z,82.60
2018-03-15T05:17:16.150Z,82.60
2018-03-15T05:19:42.527Z,82.80
2018-03-15T05:22:08.805Z,83.30
2018-03-15T05:24:35.096Z,83.80
2018-03-15T05:27:01.378Z,84.20
2018-03-15T05:29:27.868Z,84.20
2018-03-15T05:31:54.939Z,84.70
2018-03-15T05:34:21.510Z,84.70
2018-03-15T05:36:47.978Z,84.20
2018-03-15T05:39:19.757Z,84.30
2018-03-15T05:41:46.036Z,84.30
2018-03-15T05:44:12.995Z,84.50
2018-03-15T05:46:40.314Z,84.30
2018-03-15T05:49:06.536Z,84.20
2018-03-15T05:51:32.832Z,83.40
2018-03-15T05:53:59.199Z,83.50
2018-03-15T05:56:25.430Z,83.60
2018-03-15T05:58:52.438Z,82.60
2018-03-15T06:01:18.732Z,82.50
2018-03-15T06:03:45.023Z,81.40
2018-03-15T06:06:11.360Z,81.60
2018-03-15T06:08:37.627Z,80.80
2018-03-15T06:11:03.910Z,81.80
2018-03-15T06:13:30.226Z,80.40
2018-03-15T06:15:56.507Z,80.80
2018-03-15T06:18:22.890Z,80.00
2018-03-15T06:20:49.247Z,78.30
2018-03-15T06:23:15.544Z,77.30
2018-03-15T06:25:41.872Z,76.60
2018-03-15T06:28:08.128Z,76.70
2018-03-15T06:30:34.383Z,76.20
2018-03-15T06:33:00.690Z,76.50
2018-03-15T06:35:27.658Z,76.30
2018-03-15T06:37:53.906Z,76.30
2018-03-15T06:40:20.176Z,76.40
2018-03-15T06:42:46.492Z,76.50
2018-03-15T06:45:12.711Z,76.80
2018-03-15T06:47:39.682Z,74.30
2018-03-15T06:50:05.958Z,74.30
2018-03-15T06:52:33.329Z,71.20
2018-03-15T06:54:59.639Z,69.70
2018-03-15T06:57:25.996Z,67.30
2018-03-15T06:59:52.302Z,67.30
2018-03-15T07:02:18.573Z,63.30
2018-03-15T07:04:45.537Z,59.00
2018-03-15T07:07:11.790Z,59.00
2018-03-15T07:09:38.045Z,59.00
2018-03-15T07:12:04.494Z,58.10
2018-03-15T07:14:53.391Z,57.90
2018-03-15T07:17:19.682Z,58.40
2018-03-15T07:19:45.932Z,59.20
2018-03-15T07:22:12.271Z,59.70
2018-03-15T07:24:38.594Z,60.30
2018-03-15T07:27:04.864Z,60.30
2018-03-15T07:29:31.215Z,60.10
2018-03-15T07:31:57.463Z,58.90
2018-03-15T07:34:23.674Z,58.60
2018-03-15T07:36:49.909Z,56.90
2018-03-15T07:39:16.165Z,54.10
2018-03-15T07:41:42.469Z,53.60
2018-03-15T07:44:09.486Z,57.20
2018-03-15T07:46:35.780Z,57.20
2018-03-15T07:49:02.052Z,57.00
2018-03-15T07:51:28.353Z,58.10
2018-03-15T07:53:55.354Z,58.60
2018-03-15T07:56:22.647Z,58.50
2018-03-15T07:58:49.177Z,58.70
2018-03-15T08:01:15.504Z,59.80
2018-03-15T08:03:41.770Z,57.30
2018-03-15T08:06:08.341Z,55.30
2018-03-15T08:08:34.768Z,55.80
2018-03-15T08:11:02.226Z,53.10
2018-03-15T08:13:28.655Z,52.90
2018-03-15T08:15:56.504Z,53.80
2018-03-15T08:18:24.607Z,55.40
2018-03-15T08:20:51.823Z,55.40
2018-03-15T08:23:18.129Z,54.20
2018-03-15T08:25:44.657Z,53.90
2018-03-15T08:28:11.159Z,53.60
2018-03-15T08:30:38.232Z,54.70
2018-03-15T08:33:05.331Z,55.40
2018-03-15T08:35:31.841Z,55.40
2018-03-15T08:37:58.199Z,55.80
2018-03-15T08:40:25.507Z,54.70
2018-03-15T08:42:51.846Z,54.70
2018-03-15T08:45:18.166Z,54.70
2018-03-15T08:47:44.579Z,52.90
2018-03-15T08:50:10.929Z,53.00
2018-03-15T08:52:38.137Z,50.40
2018-03-15T08:55:04.758Z,50.30
2018-03-15T08:57:31.156Z,49.30
2018-03-15T08:59:57.830Z,47.80
2018-03-15T09:02:24.389Z,48.40
2018-03-15T09:04:51.785Z,49.00
2018-03-15T09:07:19.863Z,47.30
2018-03-15T09:09:46.249Z,47.30
2018-03-15T09:12:12.797Z,46.50
2018-03-15T09:14:39.606Z,46.90
2018-03-15T09:17:08.172Z,46.30
2018-03-15T09:19:34.545Z,46.40
2018-03-15T09:22:01.704Z,46.50
2018-03-15T09:24:28.807Z,47.10
2018-03-15T09:26:55.317Z,47.00
2018-03-15T09:29:21.849Z,47.40
2018-03-15T09:31:48.901Z,47.50
2018-03-15T09:34:16.142Z,47.70
2018-03-15T09:36:42.482Z,47.20
2018-03-15T09:39:09.215Z,47.00
2018-03-15T09:41:35.557Z,45.00
2018-03-15T09:44:02.606Z,44.00
2018-03-15T09:46:28.889Z,44.60
2018-03-15T09:48:55.429Z,44.20
2018-03-15T09:51:22.757Z,43.90
2018-03-15T09:53:53.748Z,44.30
2018-03-15T09:56:20.114Z,44.50
2018-03-15T10:01:41.573Z,45.40
2018-03-15T10:06:49.210Z,44.00
2018-03-15T10:09:15.875Z,43.50
2018-03-15T10:11:42.190Z,43.30
2018-03-15T10:14:08.946Z,44.10
2018-03-15T10:16:35.602Z,44.30
2018-03-15T10:19:02.159Z,44.20
2018-03-15T10:21:30.448Z,45.40
2018-03-15T10:23:56.827Z,45.40
2018-03-15T10:26:23.440Z,44.30
2018-03-15T10:28:50.160Z,43.30
2018-03-15T10:31:16.485Z,43.20
2018-03-15T10:33:42.824Z,43.20
2018-03-15T10:36:09.462Z,43.70
2018-03-15T10:38:35.779Z,43.10
2018-03-15T10:41:02.878Z,42.60
2018-03-15T10:43:29.223Z,42.50
2018-03-15T10:45:55.532Z,42.00
2018-03-15T10:48:21.891Z,42.50
2018-03-15T10:50:49.065Z,41.90
2018-03-15T10:53:15.468Z,41.90
2018-03-15T10:55:42.016Z,42.20
2018-03-15T10:58:08.768Z,42.00
2018-03-15T11:00:41.084Z,43.80
2018-03-15T11:03:14.506Z,45.10
2018-03-15T11:05:44.883Z,45.10
2018-03-15T11:08:18.190Z,44.50
2018-03-15T11:10:44.544Z,44.50
2018-03-15T11:13:11.087Z,45.00
2018-03-15T11:15:37.440Z,44.60
2018-03-15T11:18:03.819Z,43.60
2018-03-15T11:20:30.075Z,44.20
2018-03-15T11:22:56.450Z,45.00
2018-03-15T11:25:32.335Z,45.50
2018-03-15T11:27:58.652Z,45.50
2018-03-15T11:30:39.532Z,45.60
2018-03-15T11:33:05.990Z,46.50
2018-03-15T11:35:32.417Z,46.00
2018-03-15T11:37:58.781Z,46.20
2018-03-15T11:40:25.248Z,46.00
2018-03-15T11:42:51.867Z,45.30
2018-03-15T11:45:18.498Z,44.30
2018-03-15T11:47:44.832Z,43.10
2018-03-15T11:50:11.426Z,42.90
2018-03-15T11:52:38.452Z,42.30
2018-03-15T11:55:04.837Z,41.80
2018-03-15T11:57:31.415Z,40.10
2018-03-15T11:59:58.487Z,38.80
2018-03-15T12:02:24.813Z,38.70
2018-03-15T12:04:51.903Z,38.30
2018-03-15T12:07:22.198Z,38.10
2018-03-15T12:09:48.530Z,38.20
2018-03-15T12:12:14.788Z,39.10
2018-03-15T12:14:41.072Z,39.70
2018-03-15T12:17:07.345Z,39.30
2018-03-15T12:19:33.618Z,40.20
2018-03-15T12:21:59.890Z,40.40
2018-03-15T12:24:26.885Z,38.50
2018-03-15T12:26:53.173Z,38.40
2018-03-15T12:29:19.384Z,38.70
2018-03-15T12:31:45.689Z,40.10
2018-03-15T12:34:12.123Z,40.50
2018-03-15T12:36:38.521Z,40.80
2018-03-15T12:39:04.835Z,40.70
2018-03-15T12:41:31.080Z,40.90
2018-03-15T12:43:57.377Z,40.50
2018-03-15T12:46:24.431Z,41.60
2018-03-15T12:48:50.686Z,41.60
2018-03-15T12:51:17.729Z,41.80
2018-03-15T12:53:43.970Z,41.80
2018-03-15T12:56:10.248Z,41.50
2018-03-15T12:58:36.530Z,41.10
2018-03-15T13:01:04.918Z,40.90
2018-03-15T13:03:31.944Z,40.90
2018-03-15T13:05:58.919Z,40.50
2018-03-15T13:08:25.166Z,40.50
2018-03-15T13:10:51.476Z,40.10
2018-03-15T13:13:21.303Z,39.90
2018-03-15T13:15:48.404Z,40.20
2018-03-15T13:18:15.395Z,41.30
2018-03-15T13:20:41.633Z,40.80
2018-03-15T13:23:07.963Z,39.70
2018-03-15T13:25:53.621Z,40.00
2018-03-15T13:28:19.840Z,40.80
2018-03-15T13:30:46.800Z,42.00
2018-03-15T13:33:13.835Z,42.10
2018-03-15T13:35:40.090Z,42.10
2018-03-15T13:38:07.260Z,41.00
2018-03-15T13:40:33.643Z,41.00
2018-03-15T13:42:59.888Z,41.30
2018-03-15T13:45:26.162Z,39.70
2018-03-15T13:47:52.454Z,38.30
2018-03-15T13:50:18.734Z,37.70
2018-03-15T13:52:52.074Z,37.30
2018-03-15T13:55:25.430Z,38.90
2018-03-15T13:57:51.894Z,38.80
2018-03-15T14:00:18.280Z,38.70
2018-03-15T14:02:46.561Z,39.60
2018-03-15T14:05:13.561Z,40.20
2018-03-15T14:07:39.806Z,40.10
2018-03-15T14:10:06.204Z,40.00
2018-03-15T14:12:33.263Z,39.00
2018-03-15T14:15:00.257Z,39.50
2018-03-15T14:17:26.756Z,39.50
2018-03-15T14:19:53.169Z,39.20
2018-03-15T14:22:23.795Z,40.10
2018-03-15T14:24:50.083Z,40.10
2018-03-15T14:27:16.502Z,41.90
2018-03-15T14:29:42.850Z,41.50
2018-03-15T14:32:09.167Z,40.80
2018-03-15T14:34:36.128Z,40.70
2018-03-15T14:37:02.462Z,40.60
2018-03-15T14:39:28.785Z,40.00
2018-03-15T14:41:55.083Z,39.50
2018-03-15T14:44:21.412Z,38.70
2018-03-15T14:46:48.705Z,40.30
2018-03-15T14:49:14.950Z,39.40
2018-03-15T14:51:41.266Z,39.20
2018-03-15T14:54:07.631Z,40.50
2018-03-15T14:56:39.571Z,38.40
2018-03-15T14:59:09.859Z,38.60
2018-03-15T15:01:36.121Z,39.30
2018-03-15T15:04:03.138Z,40.10
2018-03-15T15:06:30.383Z,40.00
2018-03-15T15:08:56.624Z,41.20
2018-03-15T15:11:22.954Z,41.50
2018-03-15T15:13:49.255Z,39.90
2018-03-15T15:16:15.538Z,38.10
2018-03-15T15:18:41.871Z,40.20
2018-03-15T15:21:32.666Z,40.50
2018-03-15T15:23:59.714Z,38.10
2018-03-15T15:26:25.970Z,38.10
2018-03-15T15:28:53.055Z,39.10
2018-03-15T15:31:19.322Z,39.10
2018-03-15T15:33:45.626Z,39.30
2018-03-15T15:36:12.680Z,39.10
2018-03-15T15:38:39.753Z,40.70
2018-03-15T15:41:06.017Z,40.70
2018-03-15T15:43:32.244Z,41.70
2018-03-15T15:46:19.102Z,41.30
2018-03-15T15:48:45.346Z,40.70
2018-03-15T15:51:11.653Z,42.20
2018-03-15T15:53:39.278Z,44.40
2018-03-15T15:56:05.593Z,42.90
2018-03-15T15:58:31.872Z,44.40
2018-03-15T16:00:58.418Z,44.30
2018-03-15T16:03:24.768Z,45.50
2018-03-15T16:05:51.171Z,45.90
2018-03-15T16:08:17.574Z,47.20
2018-03-15T16:10:44.638Z,47.70
2018-03-15T16:13:11.178Z,47.70
2018-03-15T16:15:38.555Z,48.70
2018-03-15T16:18:10.249Z,49.40
2018-03-15T16:20:36.714Z,49.40
2018-03-15T16:23:03.106Z,48.90
2018-03-15T16:25:31.241Z,53.90
2018-03-15T16:27:57.603Z,54.70
2018-03-15T16:30:24.037Z,49.10
2018-03-15T16:32:50.793Z,50.30
2018-03-15T16:35:17.256Z,50.80
2018-03-15T16:37:44.750Z,50.40
2018-03-15T16:40:11.195Z,50.40
2018-03-15T16:42:39.482Z,50.50
2018-03-15T16:45:10.315Z,50.50
2018-03-15T16:47:36.633Z,50.70
2018-03-15T16:50:05.042Z,53.30
2018-03-15T16:52:31.478Z,52.40
2018-03-15T16:54:58.043Z,51.80
2018-03-15T16:57:24.365Z,52.40
2018-03-15T16:59:50.863Z,52.20
2018-03-15T17:02:17.662Z,52.60
2018-03-15T17:04:45.321Z,52.90
2018-03-15T17:07:12.557Z,53.30
2018-03-15T17:09:39.552Z,53.40
2018-03-15T17:12:05.922Z,53.60
2018-03-15T17:14:32.296Z,53.40
2018-03-15T17:17:01.820Z,54.30
2018-03-15T17:19:29.019Z,54.50
2018-03-15T17:21:55.334Z,54.40
2018-03-15T17:24:21.681Z,54.60
2018-03-15T17:26:47.978Z,55.00
2018-03-15T17:29:15.190Z,59.00
2018-03-15T17:31:42.413Z,55.60
2018-03-15T17:34:10.029Z,54.50
2018-03-15T17:36:36.751Z,55.10
2018-03-15T17:39:04.252Z,55.10
2018-03-15T17:41:31.652Z,54.80
2018-03-15T17:43:57.979Z,55.30
2018-03-15T17:46:24.372Z,55.70
2018-03-15T17:48:50.752Z,56.30
2018-03-15T17:51:17.084Z,56.60
2018-03-15T17:53:43.524Z,56.60
2018-03-15T17:56:09.938Z,57.30
2018-03-15T17:58:36.574Z,57.40
2018-03-15T18:01:09.475Z,57.50
2018-03-15T18:03:35.859Z,57.50
2018-03-15T18:06:02.216Z,58.00
2018-03-15T18:08:28.629Z,58.70
2018-03-15T18:10:54.998Z,57.90
2018-03-15T18:13:22.198Z,57.90
2018-03-15T18:15:48.830Z,57.90
2018-03-15T18:18:15.172Z,58.10
2018-03-15T18:20:45.264Z,58.20
2018-03-15T18:23:13.315Z,58.60
2018-03-15T18:25:41.341Z,58.90
2018-03-15T18:28:09.291Z,59.60
2018-03-15T18:30:35.782Z,60.20
2018-03-15T18:33:05.149Z,58.70
2018-03-15T18:35:31.449Z,59.20
2018-03-15T18:37:57.812Z,59.10
2018-03-15T18:40:24.199Z,59.00
2018-03-15T18:42:50.782Z,59.50
2018-03-15T18:45:17.977Z,59.50
2018-03-15T18:47:45.675Z,59.50
2018-03-15T18:50:12.456Z,59.50
2018-03-15T18:52:39.584Z,59.60
2018-03-15T18:55:05.975Z,59.60
2018-03-15T18:57:32.341Z,59.80
2018-03-15T18:59:58.649Z,60.00
2018-03-15T19:02:24.929Z,60.30
2018-03-15T19:04:51.241Z,60.60
2018-03-15T19:07:18.656Z,60.50
2018-03-15T19:09:45.170Z,60.40
2018-03-15T19:12:12.694Z,60.30
2018-03-15T19:14:39.716Z,60.30
2018-03-15T19:17:06.238Z,61.70
2018-03-15T19:19:33.684Z,58.80
2018-03-15T19:22:00.198Z,58.70
2018-03-15T19:24:26.604Z,57.70
2018-03-15T19:26:55.685Z,57.90
2018-03-15T19:29:22.265Z,57.90
2018-03-15T19:31:49.328Z,57.30
2018-03-15T19:34:16.606Z,57.50
2018-03-15T19:36:43.062Z,57.50
2018-03-15T19:39:11.886Z,57.50
2018-03-15T19:41:39.764Z,55.20
2018-03-15T19:44:06.357Z,55.20
2018-03-15T19:46:32.836Z,54.80
2018-03-15T19:48:59.236Z,56.10
2018-03-15T19:51:25.972Z,54.20
2018-03-15T19:53:53.525Z,54.20
2018-03-15T19:56:20.503Z,55.60
2018-03-15T19:58:46.959Z,55.10
2018-03-15T20:01:36.662Z,55.50
2018-03-15T20:04:03.973Z,56.50
2018-03-15T20:06:30.446Z,56.20
2018-03-15T20:08:57.831Z,56.40
2018-03-15T20:11:28.212Z,56.50
2018-03-15T20:13:54.734Z,57.00
2018-03-15T20:16:22.379Z,56.50
2018-03-15T20:18:51.278Z,56.80
2018-03-15T20:21:17.756Z,56.90
2018-03-15T20:23:52.076Z,57.70
2018-03-15T20:26:18.488Z,57.50
2018-03-15T20:28:46.905Z,57.50
2018-03-15T20:31:13.736Z,57.10
2018-03-15T20:33:49.020Z,57.30
2018-03-15T20:36:15.829Z,57.20
2018-03-15T20:38:43.990Z,58.10
2018-03-15T20:41:16.752Z,56.70
2018-03-15T20:43:43.644Z,57.70
2018-03-15T20:46:16.974Z,57.00
2018-03-15T20:48:49.597Z,57.00
2018-03-15T20:51:16.061Z,56.90
2018-03-15T20:53:42.563Z,57.20
2018-03-15T20:56:09.528Z,57.20
2018-03-15T20:58:36.945Z,56.50
2018-03-15T21:01:03.260Z,57.00
2018-03-15T21:03:29.617Z,57.30
2018-03-15T21:05:56.251Z,57.90
2018-03-15T21:08:22.629Z,58.30
2018-03-15T21:10:49.766Z,57.60
2018-03-15T21:13:16.130Z,58.00
2018-03-15T21:15:42.897Z,58.00
2018-03-15T21:18:10.415Z,58.60
2018-03-15T21:20:36.852Z,58.60
2018-03-15T21:23:03.209Z,58.90
2018-03-15T21:25:33.568Z,58.60
2018-03-15T21:28:00.027Z,59.00
2018-03-15T21:30:32.816Z,59.30
2018-03-15T21:32:59.164Z,59.20
2018-03-15T21:35:36.472Z,59.40
2018-03-15T21:38:03.109Z,59.70
2018-03-15T21:40:29.614Z,59.30
2018-03-15T21:42:57.542Z,59.20
2018-03-15T21:45:24.873Z,59.50
2018-03-15T21:47:55.857Z,59.60
2018-03-15T21:50:22.499Z,61.30
2018-03-15T21:52:49.221Z,59.70
2018-03-15T21:55:30.738Z,58.60
2018-03-15T21:58:02.433Z,58.10
2018-03-15T22:00:28.908Z,58.60
2018-03-15T22:02:55.886Z,58.90
2018-03-15T22:05:36.028Z,58.90
2018-03-15T22:08:02.312Z,59.00
2018-03-15T22:10:32.155Z,59.20
2018-03-15T22:12:58.424Z,59.80
2018-03-15T22:15:25.512Z,58.60
2018-03-15T22:17:51.801Z,57.90
2018-03-15T22:20:18.831Z,58.30
2018-03-15T22:22:45.076Z,58.30
2018-03-15T22:25:11.354Z,58.70
2018-03-15T22:27:37.608Z,59.10
2018-03-15T22:30:04.667Z,59.70
2018-03-15T22:32:38.269Z,59.40
2018-03-15T22:35:04.574Z,59.30
2018-03-15T22:37:30.812Z,59.60
2018-03-15T22:39:57.054Z,59.40
2018-03-15T22:42:23.308Z,59.40
2018-03-15T22:44:49.545Z,59.60
2018-03-15T22:47:15.853Z,59.70
2018-03-15T22:49:45.409Z,59.20
2018-03-15T22:52:11.687Z,59.40
2018-03-15T22:54:38.960Z,59.70
2018-03-15T22:57:06.376Z,60.30
2018-03-15T22:59:39.338Z,60.40
2018-03-15T23:02:06.392Z,61.10
2018-03-15T23:04:39.592Z,61.10
2018-03-15T23:07:06.087Z,61.50
2018-03-15T23:12:20.385Z,62.50
2018-03-15T23:14:47.538Z,62.30
2018-03-15T23:17:18.262Z,63.00
2018-03-15T23:19:44.860Z,62.00
2018-03-15T23:22:11.276Z,61.90
2018-03-15T23:24:38.294Z,62.80
2018-03-15T23:27:04.518Z,62.80
2018-03-15T23:29:30.848Z,63.20
2018-03-15T23:31:57.916Z,65.00
2018-03-15T23:34:24.194Z,64.20
2018-03-15T23:36:51.271Z,64.70
2018-03-15T23:39:17.678Z,64.60
2018-03-15T23:41:44.215Z,65.30
2018-03-15T23:44:10.595Z,64.90
2018-03-15T23:46:37.620Z,64.50
2018-03-15T23:49:03.885Z,64.40
2018-03-15T23:51:30.184Z,64.90
2018-03-15T23:53:56.469Z,65.00
2018-03-15T23:56:22.787Z,65.00
2018-03-15T23:58:49.071Z,65.00
